Time;durP1;ratioP1;P1;durP2;ratioP2;P2;SDS_P1;SDS_P2;PMS_P1;PMS_P2;Temp;Humidity;BMP_temperature;BMP_pressure;BME280_temperature;BME280_humidity;BME280_pressure;Samples;Min_cycle;Max_cycle;Signal;HPM_P1;HPM_P2
2023/10/09 00:00:28;;;;;;;36.05;20.73;;;;;;;11.84;nan;101762.16;10358071;28;20037;-79
2023/10/09 00:05:23;;;;;;;39.17;22.80;;;;;;;11.86;nan;101760.53;10353883;28;20129;-79
2023/10/09 00:10:34;;;;;;;30.17;18.55;;;;;;;11.75;nan;101751.16;10357474;28;20052;-79
2023/10/09 00:15:35;;;;;;;35.28;20.98;;;;;;;11.74;nan;101742.38;10354513;28;20415;-79
2023/10/09 00:20:39;;;;;;;37.95;20.95;;;;;;;11.87;nan;101740.44;10324559;28;20125;-79
2023/10/09 00:26:16;;;;;;;36.58;20.77;;;;;;;11.87;nan;101733.50;10354797;28;20501;-79
2023/10/09 00:31:15;;;;;;;37.30;19.35;;;;;;;11.87;nan;101738.75;10355851;28;20038;-80
2023/10/09 00:36:19;;;;;;;36.88;19.17;;;;;;;11.86;nan;101723.81;10341625;28;20058;-80
2023/10/09 00:41:21;;;;;;;34.67;20.95;;;;;;;11.86;nan;101715.94;10365945;28;20057;-80
2023/10/09 00:51:24;;;;;;;36.65;19.45;;;;;;;12.00;nan;101693.13;10362731;28;20062;-79
2023/10/09 01:01:34;;;;;;;28.65;18.05;;;;;;;12.00;nan;101692.25;10345471;28;20165;-80
2023/10/09 01:06:42;;;;;;;30.98;18.08;;;;;;;12.07;nan;101694.38;10313474;28;20065;-81
2023/10/09 01:12:28;;;;;;;28.98;16.98;;;;;;;12.17;nan;101685.28;10328093;28;20064;-80
2023/10/09 01:17:08;;;;;;;29.98;17.77;;;;;;;12.18;nan;101682.75;10355377;28;20045;-81
2023/10/09 01:22:16;;;;;;;26.13;15.52;;;;;;;12.24;nan;101683.91;10362090;28;20069;-81
2023/10/09 01:27:16;;;;;;;25.25;15.93;;;;;;;12.30;nan;101674.59;10361833;28;20034;-81
2023/10/09 01:32:18;;;;;;;22.10;15.52;;;;;;;12.32;nan;101685.22;10362833;28;20383;-79
2023/10/09 01:37:22;;;;;;;22.42;14.77;;;;;;;12.27;nan;101694.56;10354522;28;20074;-80
2023/10/09 01:43:09;;;;;;;25.98;16.02;;;;;;;12.23;nan;101700.47;10360093;28;20107;-80
2023/10/09 01:47:51;;;;;;;25.17;15.63;;;;;;;12.24;nan;101703.16;10356954;28;20065;-81
2023/10/09 01:52:52;;;;;;;24.42;14.38;;;;;;;12.25;nan;101701.44;10363620;28;20041;-80
2023/10/09 01:57:52;;;;;;;21.85;14.13;;;;;;;12.29;nan;101699.06;10356754;28;20038;-81
2023/10/09 02:02:53;;;;;;;21.90;13.40;;;;;;;12.32;nan;101699.22;10354911;28;20031;-80
2023/10/09 02:07:54;;;;;;;31.00;17.83;;;;;;;12.32;nan;101696.59;10354465;28;20793;-80
2023/10/09 02:12:59;;;;;;;19.80;14.80;;;;;;;12.29;nan;101695.53;10344871;28;20042;-79
2023/10/09 02:18:01;;;;;;;25.63;14.60;;;;;;;12.29;nan;101690.28;10337957;28;20156;-79
2023/10/09 02:23:01;;;;;;;25.20;16.13;;;;;;;12.30;nan;101687.72;10350589;28;20045;-79
2023/10/09 02:28:05;;;;;;;24.42;13.43;;;;;;;12.28;nan;101678.88;10369551;28;20059;-79
2023/10/09 02:33:09;;;;;;;18.63;11.45;;;;;;;12.27;nan;101671.81;10331773;28;20514;-80
2023/10/09 02:38:14;;;;;;;20.38;14.32;;;;;;;12.26;nan;101667.41;10348183;28;20456;-80
2023/10/09 02:43:17;;;;;;;25.80;15.32;;;;;;;12.25;nan;101670.84;10358597;28;20042;-80
2023/10/09 02:48:26;;;;;;;25.08;14.88;;;;;;;12.24;nan;101676.91;10360218;28;20030;-79
2023/10/09 02:53:29;;;;;;;29.75;15.85;;;;;;;12.24;nan;101670.78;10347728;28;20112;-79
2023/10/09 02:58:32;;;;;;;25.15;14.18;;;;;;;12.33;nan;101661.66;10356749;28;20042;-80
2023/10/09 03:03:35;;;;;;;26.98;15.48;;;;;;;12.33;nan;101671.25;10318842;28;21019;-81
2023/10/09 03:08:37;;;;;;;21.40;12.80;;;;;;;12.31;nan;101660.66;10310282;28;20193;-79
2023/10/09 03:13:37;;;;;;;26.27;17.63;;;;;;;12.36;nan;101655.69;10308746;28;20049;-80
2023/10/09 03:18:38;;;;;;;27.60;16.67;;;;;;;12.44;nan;101638.59;10356396;28;20076;-80
2023/10/09 03:23:38;;;;;;;26.67;14.93;;;;;;;12.42;nan;101634.09;10358827;28;20072;-79
2023/10/09 03:28:39;;;;;;;23.85;15.48;;;;;;;12.38;nan;101640.91;10358931;28;20040;-80
2023/10/09 03:33:40;;;;;;;22.88;13.88;;;;;;;12.36;nan;101639.00;10331160;28;20414;-84
2023/10/09 03:38:42;;;;;;;27.83;14.70;;;;;;;12.44;nan;101638.59;10343413;28;20072;-79
2023/10/09 03:43:45;;;;;;;26.15;14.82;;;;;;;12.49;nan;101641.47;10351035;28;20397;-78
2023/10/09 03:48:49;;;;;;;28.70;16.30;;;;;;;12.56;nan;101648.84;10343326;28;20072;-78
2023/10/09 03:53:52;;;;;;;24.30;15.90;;;;;;;12.72;nan;101641.75;10348874;28;20097;-79
2023/10/09 03:58:53;;;;;;;26.08;15.23;;;;;;;12.76;nan;101633.19;10345273;28;20474;-79
2023/10/09 04:03:55;;;;;;;19.92;14.45;;;;;;;12.73;nan;101615.56;10350297;28;20126;-79
2023/10/09 04:08:55;;;;;;;21.10;14.77;;;;;;;12.73;nan;101617.28;10338716;28;20398;-79
2023/10/09 04:13:59;;;;;;;18.67;12.20;;;;;;;12.72;nan;101615.47;10352395;28;20080;-81
2023/10/09 04:19:08;;;;;;;22.75;13.75;;;;;;;12.81;nan;101596.69;10360881;28;20046;-81
2023/10/09 04:29:26;;;;;;;20.17;12.82;;;;;;;12.99;nan;101575.66;10362267;28;20038;-80
2023/10/09 04:34:34;;;;;;;26.10;15.77;;;;;;;12.93;nan;101566.66;10359498;28;20096;-81
2023/10/09 04:39:36;;;;;;;18.90;13.30;;;;;;;12.99;nan;101568.69;10361014;28;20038;-81
2023/10/09 04:44:37;;;;;;;22.48;14.90;;;;;;;13.07;nan;101564.72;10354420;28;20084;-80
2023/10/09 05:10:53;;;;;;;20.20;13.75;;;;;;;13.21;nan;101549.59;10360227;28;20046;-80
2023/10/09 05:15:56;;;;;;;23.42;14.32;;;;;;;13.15;nan;101572.94;10362924;28;20038;-79
2023/10/09 05:21:17;;;;;;;23.30;13.82;;;;;;;13.10;nan;101582.34;10359919;28;20034;-79
2023/10/09 05:26:37;;;;;;;29.35;14.73;;;;;;;13.05;nan;101582.13;10360012;28;20083;-80
2023/10/09 05:31:56;;;;;;;26.10;15.68;;;;;;;13.10;nan;101589.34;10337162;28;20049;-80
2023/10/09 05:37:10;;;;;;;24.83;13.00;;;;;;;13.08;nan;101586.63;10360038;28;20045;-80
2023/10/09 05:42:17;;;;;;;24.98;13.20;;;;;;;13.12;nan;101598.19;10348752;28;20049;-80
2023/10/09 05:47:33;;;;;;;16.42;11.38;;;;;;;13.19;nan;101585.41;10334210;28;20045;-83
2023/10/09 06:08:24;;;;;;;24.40;14.38;;;;;;;13.44;nan;101633.94;10341906;28;20069;-80
2023/10/09 06:13:37;;;;;;;29.50;14.43;;;;;;;13.42;nan;101619.81;10342222;28;20026;-80
2023/10/09 06:18:41;;;;;;;26.30;17.17;;;;;;;13.46;nan;101645.44;10345000;28;20046;-80
2023/10/09 06:24:09;;;;;;;24.73;14.88;;;;;;;13.53;nan;101654.53;10358025;28;20126;-80
2023/10/09 06:29:16;;;;;;;23.08;14.25;;;;;;;13.64;nan;101648.06;10353832;28;20045;-79
2023/10/09 06:34:18;;;;;;;24.42;15.73;;;;;;;13.67;nan;101676.22;10347547;28;20038;-79
2023/10/09 06:44:53;;;;;;;20.55;13.63;;;;;;;13.83;nan;101682.22;10359284;28;20038;-83
2023/10/09 06:50:24;;;;;;;25.75;13.93;;;;;;;13.80;nan;101677.72;10372239;28;20066;-83
2023/10/09 06:55:37;;;;;;;24.40;16.55;;;;;;;13.84;nan;101662.97;10357987;28;20045;-82
2023/10/09 07:06:23;;;;;;;28.92;17.35;;;;;;;13.98;nan;101654.00;10355895;28;20045;-81
2023/10/09 07:16:57;;;;;;;21.25;13.77;;;;;;;14.14;nan;101657.34;10359019;28;20069;-80
2023/10/09 07:22:02;;;;;;;22.92;15.88;;;;;;;14.27;nan;101656.16;10341899;28;20048;-80
2023/10/09 07:27:09;;;;;;;32.05;18.65;;;;;;;14.32;nan;101652.91;10357081;28;20120;-80
2023/10/09 07:32:12;;;;;;;28.88;16.67;;;;;;;14.37;nan;101651.38;10357686;28;20038;-80
2023/10/09 07:37:19;;;;;;;21.80;14.23;;;;;;;14.39;nan;101654.97;10357576;28;20042;-80
2023/10/09 07:42:26;;;;;;;20.75;14.95;;;;;;;14.52;nan;101651.16;10357352;28;20077;-80
2023/10/09 07:52:45;;;;;;;16.75;12.30;;;;;;;14.94;nan;101608.16;10365247;28;20111;-82
2023/10/09 07:57:52;;;;;;;24.95;13.75;;;;;;;15.10;nan;101616.69;10364692;28;20095;-81
2023/10/09 08:03:00;;;;;;;20.95;13.63;;;;;;;15.12;nan;101629.13;10380936;28;20155;-81
2023/10/09 08:08:39;;;;;;;17.30;13.65;;;;;;;15.08;nan;101657.91;10365305;28;20045;-82
2023/10/09 08:13:49;;;;;;;23.67;15.40;;;;;;;14.98;nan;101706.72;10365252;28;20603;-81
2023/10/09 08:18:51;;;;;;;23.20;14.18;;;;;;;15.05;nan;101689.44;10363675;28;20486;-81
2023/10/09 08:23:52;;;;;;;20.02;12.70;;;;;;;15.14;nan;101691.56;10364021;28;20065;-81
2023/10/09 08:28:54;;;;;;;24.98;16.33;;;;;;;15.21;nan;101678.69;10363622;28;20050;-81
2023/10/09 08:34:01;;;;;;;22.02;14.38;;;;;;;15.14;nan;101668.72;10364527;28;20121;-80
2023/10/09 08:39:15;;;;;;;22.50;15.40;;;;;;;15.10;nan;101672.97;10363807;28;20092;-80
2023/10/09 08:44:15;;;;;;;20.75;14.80;;;;;;;15.23;nan;101686.69;10355585;28;20050;-80
2023/10/09 08:49:16;;;;;;;22.55;14.80;;;;;;;15.49;nan;101698.28;10363301;28;20065;-80
2023/10/09 08:54:17;;;;;;;25.87;14.10;;;;;;;15.78;nan;101689.75;10388138;28;20498;-81
2023/10/09 08:59:19;;;;;;;21.67;14.27;;;;;;;16.15;nan;101673.59;10361648;28;20042;-81
2023/10/09 09:04:39;;;;;;;22.00;15.45;;;;;;;16.64;nan;101668.31;10363843;28;20128;-81
2023/10/09 09:09:55;;;;;;;21.10;13.95;;;;;;;16.80;nan;101647.72;10347088;28;20069;-81
2023/10/09 09:14:57;;;;;;;18.67;12.80;;;;;;;16.86;nan;101642.63;10363994;28;20490;-81
2023/10/09 09:19:59;;;;;;;22.65;13.25;;;;;;;16.99;nan;101650.16;10361483;28;20487;-82
2023/10/09 09:25:03;;;;;;;18.52;12.30;;;;;;;17.32;nan;101635.38;10363220;28;20157;-82
2023/10/09 09:30:23;;;;;;;19.83;12.43;;;;;;;17.67;nan;101630.28;10363606;28;20088;-82
2023/10/09 09:35:27;;;;;;;25.45;15.05;;;;;;;17.94;nan;101636.34;10363769;28;20054;-80
2023/10/09 09:40:29;;;;;;;26.85;15.25;;;;;;;18.07;nan;101635.88;10360257;28;20484;-81
2023/10/09 09:45:32;;;;;;;20.13;13.35;;;;;;;18.24;nan;101641.69;10361870;28;20371;-80
2023/10/09 09:50:33;;;;;;;17.92;12.15;;;;;;;18.21;nan;101644.25;10360838;28;20041;-82
2023/10/09 09:55:34;;;;;;;22.23;13.98;;;;;;;18.33;nan;101654.28;10345615;28;20501;-81
2023/10/09 10:05:42;;;;;;;23.42;13.57;;;;;;;18.48;nan;101667.97;10361235;28;20106;-81
2023/10/09 10:11:04;;;;;;;25.75;13.85;;;;;;;18.47;nan;101667.94;10359961;28;20485;-81
2023/10/09 10:21:29;;;;;;;19.00;13.80;;;;;;;18.04;nan;101691.41;10359922;28;20448;-81
2023/10/09 10:26:30;;;;;;;27.77;13.83;;;;;;;18.07;nan;101696.81;10361580;28;20038;-81
2023/10/09 10:31:56;;;;;;;24.03;14.60;;;;;;;18.35;nan;101700.28;10343786;28;20046;-82
2023/10/09 10:36:59;;;;;;;20.60;13.93;;;;;;;18.61;nan;101703.69;10356875;28;20042;-82
2023/10/09 10:42:01;;;;;;;16.90;11.75;;;;;;;18.96;nan;101713.44;10375743;28;20050;-81
2023/10/09 10:47:02;;;;;;;18.43;11.80;;;;;;;19.06;nan;101717.28;10360086;28;20042;-81
2023/10/09 10:52:18;;;;;;;14.57;11.00;;;;;;;19.24;nan;101723.91;10357420;28;20076;-82
2023/10/09 10:57:28;;;;;;;22.92;12.35;;;;;;;19.37;nan;101715.41;10358485;28;20052;-81
2023/10/09 11:02:31;;;;;;;16.23;12.65;;;;;;;19.36;nan;101724.22;10360490;28;20032;-82
2023/10/09 11:07:32;;;;;;;23.17;12.98;;;;;;;19.47;nan;101722.72;10359951;28;20058;-82
2023/10/09 11:12:41;;;;;;;22.93;13.87;;;;;;;19.44;nan;101717.34;10357721;28;20046;-81
2023/10/09 11:17:42;;;;;;;17.23;12.18;;;;;;;19.53;nan;101716.66;10357545;28;20052;-82
2023/10/09 11:23:05;;;;;;;19.23;12.27;;;;;;;19.86;nan;101713.00;10355535;28;20524;-81
2023/10/09 11:28:15;;;;;;;20.80;11.90;;;;;;;20.06;nan;101715.22;10358095;28;20457;-80
2023/10/09 11:33:29;;;;;;;22.20;12.48;;;;;;;20.36;nan;101709.69;10357976;28;20042;-81
2023/10/09 11:38:36;;;;;;;25.52;12.05;;;;;;;20.79;nan;101720.28;10358782;28;20038;-81
2023/10/09 11:43:52;;;;;;;27.33;14.45;;;;;;;20.94;nan;101717.03;10358578;28;20042;-81
2023/10/09 11:49:26;;;;;;;16.83;9.38;;;;;;;21.31;nan;101703.47;10357408;28;20042;-81
2023/10/09 11:54:33;;;;;;;15.43;10.43;;;;;;;21.54;nan;101700.25;10352276;28;20069;-81
2023/10/09 11:59:37;;;;;;;19.20;10.23;;;;;;;22.06;nan;101696.59;10355502;28;20042;-81
2023/10/09 12:04:43;;;;;;;15.50;11.05;;;;;;;22.00;nan;101700.09;10356260;28;20143;-82
2023/10/09 12:09:44;;;;;;;17.02;11.80;;;;;;;21.89;nan;101712.38;10357155;28;20502;-81
2023/10/09 12:14:45;;;;;;;17.10;11.40;;;;;;;21.05;nan;101724.31;10356838;28;20117;-80
2023/10/09 12:19:47;;;;;;;17.23;10.30;;;;;;;20.71;nan;101705.91;10355676;28;20061;-82
2023/10/09 12:24:47;;;;;;;13.85;10.68;;;;;;;20.67;nan;101702.31;10356187;28;20486;-81
2023/10/09 12:29:49;;;;;;;17.43;10.87;;;;;;;20.97;nan;101697.56;10355991;28;20045;-81
2023/10/09 12:34:50;;;;;;;18.90;10.57;;;;;;;20.75;nan;101704.22;10358678;28;20097;-80
2023/10/09 12:39:55;;;;;;;14.23;11.03;;;;;;;20.27;nan;101700.59;10363902;28;20192;-81
2023/10/09 12:44:57;;;;;;;27.00;12.98;;;;;;;20.17;nan;101708.38;10365385;28;20062;-81
2023/10/09 12:49:58;;;;;;;19.48;12.43;;;;;;;20.12;nan;101712.72;10360589;28;20117;-82
2023/10/09 12:54:58;;;;;;;19.43;12.87;;;;;;;19.97;nan;101705.31;10360860;28;20041;-81
2023/10/09 12:59:59;;;;;;;28.33;12.40;;;;;;;20.20;nan;101707.56;10364141;28;20125;-81
2023/10/09 13:05:00;;;;;;;16.07;11.60;;;;;;;20.63;nan;101708.44;10362125;28;20076;-82
2023/10/09 13:10:09;;;;;;;22.37;12.87;;;;;;;20.86;nan;101713.34;10363199;28;20055;-81
2023/10/09 13:15:10;;;;;;;16.77;12.25;;;;;;;20.81;nan;101713.25;10359041;28;20041;-82
2023/10/09 13:20:14;;;;;;;20.07;12.27;;;;;;;21.34;nan;101716.81;10361747;28;20038;-82
2023/10/09 13:25:24;;;;;;;19.63;13.40;;;;;;;21.65;nan;101716.47;10325218;28;20053;-82
2023/10/09 13:30:25;;;;;;;21.90;15.80;;;;;;;21.09;nan;101710.19;10361232;28;20088;-82
2023/10/09 13:35:37;;;;;;;28.73;17.03;;;;;;;20.30;nan;101703.34;10361282;28;20524;-82
2023/10/09 13:40:38;;;;;;;22.88;15.32;;;;;;;19.99;nan;101705.34;10358120;28;20394;-81
2023/10/09 13:45:38;;;;;;;31.40;15.60;;;;;;;20.11;nan;101702.94;10362584;28;20045;-81
2023/10/09 13:50:42;;;;;;;25.50;14.77;;;;;;;20.09;nan;101691.38;10345195;28;20096;-81
2023/10/09 13:55:43;;;;;;;22.50;16.40;;;;;;;19.97;nan;101704.41;10358182;28;20077;-81
2023/10/09 14:00:46;;;;;;;23.65;17.10;;;;;;;19.80;nan;101704.88;10358389;28;20128;-82
2023/10/09 14:05:54;;;;;;;25.95;15.65;;;;;;;20.21;nan;101696.97;10349958;28;20589;-82
2023/10/09 14:10:54;;;;;;;23.88;14.90;;;;;;;20.93;nan;101690.38;10360697;28;20041;-82
2023/10/09 14:15:58;;;;;;;25.03;15.87;;;;;;;20.54;nan;101689.66;10360585;28;20038;-81
2023/10/09 14:21:04;;;;;;;24.02;16.60;;;;;;;20.01;nan;101698.28;10344290;28;20065;-81
2023/10/09 14:26:06;;;;;;;21.63;15.48;;;;;;;19.90;nan;101703.38;10328311;28;20041;-82
2023/10/09 14:31:11;;;;;;;24.00;14.35;;;;;;;20.73;nan;101703.31;10376071;28;20038;-82
2023/10/09 14:36:14;;;;;;;23.25;14.35;;;;;;;21.70;nan;101698.78;10360374;28;20099;-82
2023/10/09 14:41:14;;;;;;;21.38;12.88;;;;;;;22.34;nan;101689.84;10347659;28;20045;-80
2023/10/09 14:46:16;;;;;;;21.73;15.27;;;;;;;21.84;nan;101696.28;10357956;28;20515;-78
2023/10/09 14:51:17;;;;;;;22.75;14.32;;;;;;;21.30;nan;101688.34;10348341;28;20120;-78
2023/10/09 14:56:20;;;;;;;27.97;16.20;;;;;;;20.79;nan;101695.47;10337961;28;20039;-80
2023/10/09 15:01:24;;;;;;;23.27;13.73;;;;;;;20.83;nan;101695.53;10337576;28;20050;-80
2023/10/09 15:06:29;;;;;;;25.38;17.90;;;;;;;20.56;nan;101695.91;10356537;28;20092;-80
2023/10/09 15:11:30;;;;;;;22.00;15.88;;;;;;;19.85;nan;101678.44;10333748;28;20392;-80
2023/10/09 15:16:31;;;;;;;30.75;17.00;;;;;;;19.51;nan;101673.25;10358637;28;20125;-79
2023/10/09 15:21:33;;;;;;;19.45;13.45;;;;;;;19.08;nan;101667.81;10339401;28;20053;-81
2023/10/09 15:26:33;;;;;;;20.65;13.75;;;;;;;18.59;nan;101684.19;10350549;28;20394;-82
2023/10/09 15:31:34;;;;;;;23.58;15.23;;;;;;;18.27;nan;101676.22;10343217;28;20038;-83
2023/10/09 15:36:35;;;;;;;26.42;16.05;;;;;;;18.17;nan;101679.44;10353668;28;20077;-82
2023/10/09 15:41:36;;;;;;;15.23;10.97;;;;;;;18.07;nan;101690.63;10355585;28;20034;-82
2023/10/09 15:46:36;;;;;;;28.30;14.88;;;;;;;17.93;nan;101691.06;10351491;28;20466;-82
2023/10/09 15:51:37;;;;;;;22.80;15.90;;;;;;;17.83;nan;101691.66;10334116;28;20121;-82
2023/10/09 15:56:41;;;;;;;23.40;14.80;;;;;;;17.81;nan;101682.75;10364399;28;20042;-82
2023/10/09 16:01:42;;;;;;;19.67;13.15;;;;;;;17.83;nan;101683.72;10343785;28;20565;-82
2023/10/09 16:06:44;;;;;;;;;;;;;;;17.75;nan;101687.00;10341391;28;20044;-82
2023/10/09 16:11:44;;;;;;;24.60;15.70;;;;;;;17.65;nan;101677.00;10366341;28;19926;-82
2023/10/09 16:16:45;;;;;;;17.45;11.13;;;;;;;17.61;nan;101681.28;10332753;28;20133;-82
2023/10/09 16:21:46;;;;;;;21.40;11.98;;;;;;;17.54;nan;101692.50;10327107;28;20046;-82
2023/10/09 16:26:51;;;;;;;15.27;10.15;;;;;;;17.39;nan;101694.66;10360272;28;20038;-82
2023/10/09 16:31:54;;;;;;;24.67;11.48;;;;;;;17.12;nan;101695.53;10363195;28;20042;-82
2023/10/09 16:36:55;;;;;;;22.25;11.80;;;;;;;16.82;nan;101710.38;10357043;28;20109;-82
2023/10/09 16:41:57;;;;;;;24.48;14.63;;;;;;;16.43;nan;101713.38;10342116;28;20125;-82
2023/10/09 16:46:58;;;;;;;;;;;;;;;16.14;nan;101723.75;10354411;28;20088;-83
2023/10/09 16:52:06;;;;;;;21.90;13.30;;;;;;;15.85;nan;101720.81;10365013;28;19921;-80
2023/10/09 16:57:10;;;;;;;27.77;15.75;;;;;;;15.68;nan;101736.88;10356922;28;20410;-82
2023/10/09 17:02:12;;;;;;;25.23;15.52;;;;;;;15.40;nan;101741.03;10360860;28;20046;-82
2023/10/09 17:07:15;;;;;;;23.23;15.82;;;;;;;15.23;nan;101748.22;10329539;28;20046;-83
2023/10/09 17:12:17;;;;;;;35.95;18.33;;;;;;;15.07;nan;101754.56;10341302;28;20034;-82
2023/10/09 17:17:20;;;;;;;28.30;16.27;;;;;;;14.90;nan;101763.47;10325434;28;20390;-82
2023/10/09 17:22:24;;;;;;;26.45;17.60;;;;;;;14.74;nan;101775.06;10333347;28;20233;-82
2023/10/09 17:27:24;;;;;;;29.65;19.05;;;;;;;14.65;nan;101775.53;10361420;28;20092;-84
2023/10/09 17:32:25;;;;;;;30.60;18.95;;;;;;;14.58;nan;101787.50;10358546;28;20609;-85
2023/10/09 17:37:25;;;;;;;31.63;21.45;;;;;;;14.53;nan;101789.03;10354714;28;20115;-82
2023/10/09 17:42:26;;;;;;;33.58;20.67;;;;;;;14.47;nan;101791.38;10358698;28;20478;-82
2023/10/09 17:47:27;;;;;;;35.58;20.10;;;;;;;14.37;nan;101798.84;10352928;28;20566;-83
2023/10/09 17:52:27;;;;;;;31.05;20.30;;;;;;;14.17;nan;101794.38;10332148;28;20140;-80
2023/10/09 17:57:30;;;;;;;48.58;31.40;;;;;;;14.13;nan;101788.06;10338896;28;20149;-80
2023/10/09 18:02:31;;;;;;;47.30;25.38;;;;;;;14.07;nan;101799.19;10343467;28;20548;-82
2023/10/09 18:07:31;;;;;;;40.83;24.27;;;;;;;14.02;nan;101810.34;10329414;28;20078;-81
2023/10/09 18:12:33;;;;;;;34.67;23.13;;;;;;;13.86;nan;101811.28;10318750;28;20046;-81
2023/10/09 18:17:35;;;;;;;33.80;24.33;;;;;;;13.73;nan;101815.06;10340522;28;20089;-85
2023/10/09 18:22:35;;;;;;;;;;;;;;;13.65;nan;101819.94;10356312;28;20108;-81
2023/10/09 18:27:36;;;;;;;40.25;25.30;;;;;;;13.58;nan;101818.72;10374562;28;20012;-84
2023/10/09 18:32:36;;;;;;;40.58;27.98;;;;;;;13.42;nan;101817.03;10336124;28;20397;-80
2023/10/09 18:37:39;;;;;;;47.30;29.30;;;;;;;13.35;nan;101812.25;10336129;28;20034;-81
2023/10/09 18:42:40;;;;;;;52.10;33.47;;;;;;;13.20;nan;101813.25;10333683;28;20105;-81
2023/10/09 18:47:41;;;;;;;45.97;29.95;;;;;;;13.16;nan;101811.28;10351607;28;20495;-81
2023/10/09 18:52:42;;;;;;;47.80;32.80;;;;;;;13.15;nan;101813.88;10359255;28;20065;-81
2023/10/09 18:57:43;;;;;;;51.75;31.23;;;;;;;13.07;nan;101809.09;10355266;28;20078;-81
2023/10/09 19:02:43;;;;;;;52.88;33.38;;;;;;;12.99;nan;101805.19;10359166;28;20117;-81
2023/10/09 19:07:44;;;;;;;55.85;37.45;;;;;;;12.91;nan;101812.63;10352763;28;20096;-81
2023/10/09 19:12:45;;;;;;;52.95;34.15;;;;;;;12.80;nan;101813.78;10357912;28;20202;-80
2023/10/09 19:17:48;;;;;;;60.83;36.20;;;;;;;12.75;nan;101810.94;10351774;28;20065;-81
2023/10/09 19:22:49;;;;;;;56.33;36.95;;;;;;;12.75;nan;101816.19;10354024;28;20069;-82
2023/10/09 19:27:50;;;;;;;57.78;36.63;;;;;;;12.73;nan;101804.69;10374637;28;20068;-82
2023/10/09 19:32:51;;;;;;;79.95;43.55;;;;;;;12.68;nan;101813.13;10350105;28;20041;-81
2023/10/09 19:37:53;;;;;;;58.30;38.00;;;;;;;12.72;nan;101815.09;10362269;28;20050;-81
2023/10/09 19:42:53;;;;;;;;;;;;;;;12.70;nan;101809.78;10351134;28;20037;-81
2023/10/09 19:47:54;;;;;;;59.88;37.83;;;;;;;12.59;nan;101811.81;10357478;28;20344;-81
2023/10/09 19:52:55;;;;;;;68.45;41.92;;;;;;;12.55;nan;101808.94;10341052;28;20838;-79
2023/10/09 19:57:56;;;;;;;67.60;43.35;;;;;;;12.46;nan;101802.38;10319114;28;20122;-81
2023/10/09 20:02:57;;;;;;;69.70;43.03;;;;;;;12.41;nan;101797.66;10355994;28;20425;-81
2023/10/09 20:07:59;;;;;;;66.95;46.67;;;;;;;12.41;nan;101810.78;10355177;28;20425;-81
2023/10/09 20:13:02;;;;;;;86.33;50.53;;;;;;;12.54;nan;101813.28;10336078;28;20057;-81
2023/10/09 20:18:04;;;;;;;81.95;52.50;;;;;;;12.50;nan;101810.41;10358669;28;20046;-81
2023/10/09 20:23:07;;;;;;;82.00;48.72;;;;;;;12.41;nan;101811.72;10352183;28;20478;-81
2023/10/09 20:28:10;;;;;;;78.00;50.15;;;;;;;12.36;nan;101815.81;10353613;28;20555;-82
2023/10/09 20:33:11;;;;;;;84.03;55.20;;;;;;;12.33;nan;101818.25;10354561;28;20084;-81
2023/10/09 20:38:15;;;;;;;82.60;53.22;;;;;;;12.29;nan;101822.41;10347855;28;20490;-82
2023/10/09 20:43:15;;;;;;;81.80;51.17;;;;;;;12.24;nan;101826.50;10347104;28;20065;-81
2023/10/09 20:48:16;;;;;;;83.10;53.22;;;;;;;12.12;nan;101823.19;10336704;28;20117;-80
2023/10/09 20:53:17;;;;;;;75.53;53.92;;;;;;;12.06;nan;101817.59;10340671;28;20139;-81
2023/10/09 20:58:18;;;;;;;83.82;51.45;;;;;;;11.98;nan;101827.63;10364377;28;20038;-80
2023/10/09 21:03:18;;;;;;;77.07;51.33;;;;;;;11.91;nan;101818.50;10358599;28;20060;-81
2023/10/09 21:08:20;;;;;;;98.88;56.78;;;;;;;11.96;nan;101810.91;10363743;28;20034;-81
2023/10/09 21:13:20;;;;;;;89.57;53.17;;;;;;;11.88;nan;101818.31;10361135;28;20103;-81
2023/10/09 21:18:21;;;;;;;96.25;56.83;;;;;;;11.80;nan;101822.22;10362755;28;20042;-82
2023/10/09 21:23:21;;;;;;;86.65;53.33;;;;;;;11.73;nan;101821.84;10313820;28;20110;-81
2023/10/09 21:28:22;;;;;;;84.30;53.55;;;;;;;11.67;nan;101818.00;10321619;28;20137;-81
2023/10/09 21:33:23;;;;;;;93.93;58.60;;;;;;;11.65;nan;101814.38;10357211;28;20034;-81
2023/10/09 21:38:25;;;;;;;101.35;61.88;;;;;;;11.59;nan;101807.97;10360918;28;20049;-82
2023/10/09 21:43:26;;;;;;;96.13;62.67;;;;;;;11.62;nan;101811.56;10368744;28;20501;-81
2023/10/09 21:48:27;;;;;;;92.95;60.88;;;;;;;11.55;nan;101810.28;10345620;28;20034;-81
2023/10/09 21:53:28;;;;;;;94.88;61.28;;;;;;;11.49;nan;101809.94;10340770;28;20030;-82
2023/10/09 21:58:28;;;;;;;85.82;56.33;;;;;;;11.44;nan;101809.69;10315089;28;20129;-81
2023/10/09 22:03:30;;;;;;;108.22;65.05;;;;;;;11.39;nan;101811.13;10333249;28;21051;-81
2023/10/09 22:08:33;;;;;;;107.20;67.63;;;;;;;11.45;nan;101804.50;10359835;28;20129;-81
2023/10/09 22:13:37;;;;;;;109.82;66.15;;;;;;;11.39;nan;101804.16;10362191;28;20042;-81
2023/10/09 22:18:39;;;;;;;107.72;67.38;;;;;;;11.34;nan;101812.56;10358199;28;20478;-81
2023/10/09 22:23:46;;;;;;;112.70;68.10;;;;;;;11.36;nan;101808.31;10337676;28;20184;-81
2023/10/09 22:28:47;;;;;;;119.82;71.05;;;;;;;11.28;nan;101807.84;10344551;28;20136;-80
2023/10/09 22:33:50;;;;;;;110.65;69.72;;;;;;;11.09;nan;101801.50;10359326;28;20782;-81
2023/10/09 22:38:54;;;;;;;112.03;68.55;;;;;;;11.04;nan;101794.19;10354597;28;20056;-81
2023/10/09 22:43:56;;;;;;;115.07;69.82;;;;;;;11.06;nan;101793.47;10338474;28;20049;-81
2023/10/09 22:49:03;;;;;;;118.75;72.32;;;;;;;11.06;nan;101789.94;10347071;28;20403;-81
2023/10/09 22:54:04;;;;;;;129.63;72.10;;;;;;;11.01;nan;101785.34;10310889;28;20125;-81
2023/10/09 22:59:19;;;;;;;126.57;74.15;;;;;;;10.95;nan;101791.91;10353644;28;20045;-81
2023/10/09 23:04:36;;;;;;;131.73;75.30;;;;;;;10.88;nan;101785.41;10352092;28;20041;-80
2023/10/09 23:09:47;;;;;;;121.50;70.75;;;;;;;10.91;nan;101785.59;10356590;28;20378;-81
2023/10/09 23:14:52;;;;;;;111.93;72.03;;;;;;;10.83;nan;101784.22;10340908;28;20502;-81
2023/10/09 23:19:56;;;;;;;108.38;64.40;;;;;;;10.83;nan;101776.34;10358613;28;20072;-81
2023/10/09 23:25:09;;;;;;;103.40;63.03;;;;;;;10.79;nan;101777.88;10313220;28;20042;-82
2023/10/09 23:35:43;;;;;;;120.22;71.65;;;;;;;10.76;nan;101780.28;10343815;28;20479;-81
2023/10/09 23:40:44;;;;;;;113.03;65.50;;;;;;;10.72;nan;101779.22;10351300;28;20045;-82
2023/10/09 23:45:45;;;;;;;118.72;67.15;;;;;;;10.65;nan;101776.13;10346312;28;20513;-82
2023/10/09 23:50:47;;;;;;;121.82;68.25;;;;;;;10.67;nan;101770.19;10352861;28;20030;-82
2023/10/09 23:55:50;;;;;;;;;;;;;;;10.60;nan;101774.91;10331727;28;20038;-81
